Historyczne dane pomiarowe

Dodano dane terminowe – wersja testowa.

Dane z okresu 1951-2019

Wersja bazy: 1.34 [2019-03-16, lista zmian], aktualizacja planowana na 2019-04-15

Dane meteo z obszaru Polski uzyskane na podstawie danych udostępnionych przez Instytut Meteorologii i Gospodarki Wodnej – Państwowy Instytut Badawczy.

 

Wybierz Datę:    

       

TemperaturaWilgotnośćWiatrCiśnienieOpadyŚniegCzas trwania zjawisk
 Stacja t tx tn tng RH VA  wxwx mslp ppp RRR   cm mm wxwxwxwxwxwxwx
1983-08-14 14.3 18.0 9.8--- 3.7 6.7---- 0.0------------
1983-08-13 14.3 20.0 13.2--- 6.3 6.7---- 6.7------------
1983-08-12 18.9 22.7 13.6--- 4.0 1.3---- 0.6------------
1983-08-11 18.5 21.4 16.0--- 6.3 4.3---- 21.5------------
1983-08-10 19.2 25.0 13.3--- 4.3 6.7---- 7.4------------
1983-08-09 20.4 25.5 14.4--- 2.0 4.3---- 0.0------------
1983-08-08 19.9 26.7 15.1--- 2.7 4.3---- 5.4------------
1983-08-07 19.9 25.5 16.0--- 3.0 2.0---- 4.5------------
1983-08-06 15.5 20.5 10.8--- 3.0 4.0---- 4.2------------
1983-08-05 13.5 16.4 10.8--- 2.0 2.7---- 0.0------------
1983-08-04 13.8 22.0 11.9--- 2.7 5.0---- 9.2------------
1983-08-03 20.9 27.5 13.9--- 0.3 0.3---- 0.0------------
1983-08-02 20.1 26.2 10.8--- 2.3 5.0---- 0.0------------
1983-08-01 19.0 25.0 11.8--- 1.3 2.3---- 0.0------------
1983-07-31 17.8 22.1 11.8--- 0.7 1.7---- 0.0------------
1983-07-30 16.5 20.5 12.2--- 2.3 3.7---- 0.0------------
1983-07-29 17.8 23.0 13.5--- 0.3 0.3---- 0.0------------
1983-07-28 21.0 26.0 17.5--- 0.0 0.7---- 0.0------------
1983-07-27 22.6 28.0 16.0--- 1.0 2.3---- 0.0------------
1983-07-26 18.2 25.0 11.8--- 0.3 1.3---- 0.7------------
1983-07-25 15.0 18.2 9.6--- 1.3 1.3---- 2.2------------
1983-07-24 15.1 18.0 11.8--- 4.0 1.7---- 4.5------------
1983-07-23 13.5 17.5 10.0--- 6.0 2.7---- 9.7------------
1983-07-22 13.6 17.4 9.5--- 4.3 10.0---- 9.4------------
1983-07-21 11.5 16.0 8.8--- 4.3 5.0---- 7.4------------
1983-07-20 16.9 22.0 12.0--- 4.7 8.3---- 19.0------------
1983-07-19 22.4 28.6 16.0--- 2.0 2.0---- 5.0------------
1983-07-18 20.0 26.5 11.8--- 0.7 0.7---- 0.0------------
1983-07-17 20.2 24.0 15.1--- 3.3 0.7---- 0.0------------
1983-07-16 20.2 26.0 13.5--- 2.7 0.7---- 0.0------------
1983-07-15 19.1 22.5 13.9--- 1.3 3.3---- 0.0------------
1983-07-14 17.3 21.0 16.0--- 2.7 1.7---- 23.1------------
1983-07-13 17.3 20.4 14.5--- 4.3 5.0---- 29.9------------
1983-07-12 17.6 20.5 15.1--- 3.7 2.7---- 2.1------------
1983-07-11 20.0 24.7 15.4--- 1.3 3.3---- 7.9------------
1983-07-10 21.8 27.0 13.9--- 2.0 1.7---- 1.6------------
1983-07-09 21.0 27.2 13.9--- 1.0 1.0---- 0.0------------
1983-07-08 19.8 25.5 11.6--- 0.3 0.3---- 0.0------------
1983-07-07 19.8 25.6 12.8--- 0.0 0.0---- 0.0------------
1983-07-06 20.6 26.0 11.4--- 0.0 1.3---- 0.0------------
1983-07-05 19.8 24.7 14.3--- 0.3 0.0---- 0.0------------
1983-07-04 20.4 25.4 11.8--- 0.0 0.0---- 0.0------------
1983-07-03 18.3 23.0 12.4--- 0.0 0.0---- 0.0------------
1983-07-02 19.6 23.0 15.4--- 1.3 0.3---- 0.0------------
1983-07-01 19.6 25.0 11.8--- 0.3 1.0---- 0.0------------
1983-06-30 17.2 22.0 8.8--- 0.3 1.7---- 0.0------------
1983-06-29 15.1 19.0 8.8--- 1.7 2.7---- 0.0------------
1983-06-28 17.2 21.0 14.9--- 6.0 1.3---- 3.2------------
1983-06-27 19.3 26.0 14.5--- 4.3 1.0---- 3.5------------
1983-06-26 19.0 24.0 15.4--- 2.3 2.0---- 0.0------------
1983-06-25 20.3 27.0 12.3--- 0.0 0.7---- 0.0------------
1983-06-24 17.2 23.8 7.8--- 0.3 2.3---- 0.0------------
1983-06-23 13.2 19.0 6.1--- 0.3 3.3---- 0.0------------
1983-06-22 12.2 18.2 6.7--- 3.7 8.7---- 0.0------------
1983-06-21 18.2 23.4 11.8--- 3.0 4.0---- 0.0------------
1983-06-20 18.7 23.0 14.9--- 4.7 5.7---- 0.0------------
1983-06-19 17.8 22.0 13.3--- 5.3 4.3---- 0.0------------
1983-06-18 13.2 14.5 10.8--- 8.0 8.3---- 21.9------------
1983-06-17 12.2 15.7 6.9--- 5.3 7.7---- 10.4------------
1983-06-16 12.6 15.0 10.3--- 3.7 5.0---- 0.0------------
269.7 ms

 

Źródłem pochodzenia danych jest Instytut Meteorologii i Gospodarki Wodnej – Państwowy Instytut Badawczy. Dane Instytutu Meteorologii i Gospodarki Wodnej – Państwowego Instytutu Badawczego zostały przetworzone.

Dane źródłowe można odnaleźć na stronie https://dane.imgw.pl